GABS

Details ICAO GABS (BKO)
Name Bamako Senou
Region Mali
Timezone Africa/Bamako (UTC+0.0)
Plans Departing 120
Arriving 144
Stats Elevation 1,246 ft / 380 m (AMSL)
Location 12.533544° -7.949943°
Runways 1
Magnetic Variation 4.117° W
Sunrise 2018-05-21 06:07:26 UTC / 2018-05-21 06:07:26 Local
Sunset 2018-05-21 18:52:12 UTC / 2018-05-21 18:52:12 Local
Advertisement - Login to hide

Runways

ID Width Length Bearing (true) Bearing (mag) Surface Threshold Offset Overrun Length
06 148 ft / 45 m 8,888 ft / 2,709 m 56.51° 60.63° Asphalt 0 ft / 0 m 327 ft / 100 m
24 148 ft / 45 m 8,888 ft / 2,709 m 236.51° 240.63° Asphalt 0 ft / 0 m 327 ft / 100 m

Approach Navaids

Runway Type Ident Frequency Range Bearing (true) Bearing (mag) Slope Elevation
06 Localiser IBS 109.50 MHz 18 nm / 33 km 56.53° 60.65° - 1,246 ft / 380 m (AMSL)
06 Glidescope IBS 109.50 MHz 10 nm / 19 km 56.51° 60.63° 3.00° 1,246 ft / 380 m (AMSL)
06 DME IBS 109.50 MHz 18 nm / 33 km - - - 1,214 ft / 370 m (AMSL)

Map

Weather


0- 5 10 15 20 25 30 35+ Temperature / ° C

Clouds and Precipitation
Forecast for 2018-05-21 12:00 UTC. Updated 3 hours ago

Ground ~20,000 ft ~40,000 ft Winds

METAR

GABS 211400Z 21010KT 160V250 CAVOK 34/17 Q1012 NOSIG

TAF

TAF GABS 211100Z 2112/2218 18010KT 9999 FEW026 PROB30 TEMPO 2116/2123 VRB15G25KT 4500 -TSRA SCT026 FEW030CB

Frequencies

Tower 118.30 MHz BAMAKO TWR
Warning: Do not use this data for real-world aviation or navigation. No guarantee of current accuracy is given.